createdAt,value
2023-04-08T00:00:25.428Z,86.00
2023-04-08T00:02:58.761Z,86.81
2023-04-08T00:05:32.067Z,82.48
2023-04-08T00:08:05.362Z,85.87
2023-04-08T00:10:40.112Z,85.74
2023-04-08T00:13:14.953Z,83.63
2023-04-08T00:15:50.258Z,87.45
2023-04-08T00:18:23.595Z,88.39
2023-04-08T00:20:57.297Z,90.85
2023-04-08T00:23:30.642Z,85.61
2023-04-08T00:26:05.063Z,85.68
2023-04-08T00:28:37.941Z,85.35
2023-04-08T00:31:11.037Z,84.28
2023-04-08T00:33:44.109Z,83.06
2023-04-08T00:36:17.741Z,84.34
2023-04-08T00:38:51.251Z,86.01
2023-04-08T00:41:25.955Z,88.50
2023-04-08T00:43:59.045Z,93.68
2023-04-08T00:46:32.354Z,89.09
2023-04-08T00:49:05.602Z,88.73
2023-04-08T00:51:38.639Z,87.82
2023-04-08T00:54:12.038Z,92.31
2023-04-08T00:56:46.915Z,95.51
2023-04-08T00:59:19.984Z,95.32
2023-04-08T01:01:57.086Z,90.57
2023-04-08T01:04:34.510Z,93.35
2023-04-08T01:07:11.019Z,97.34
2023-04-08T01:09:47.028Z,100.00
2023-04-08T01:12:27.332Z,96.73
2023-04-08T01:15:02.736Z,93.28
2023-04-08T01:17:37.811Z,91.19
2023-04-08T01:20:11.654Z,99.22
2023-04-08T01:22:54.889Z,99.22
2023-04-08T01:25:31.349Z,99.88
2023-04-08T01:28:07.123Z,94.54
2023-04-08T01:30:40.730Z,95.68
2023-04-08T01:33:14.928Z,92.63
2023-04-08T01:35:48.295Z,96.82
2023-04-08T01:38:21.873Z,100.00
2023-04-08T01:40:56.413Z,100.00
2023-04-08T01:43:32.316Z,97.60
2023-04-08T01:46:06.833Z,99.08
2023-04-08T01:48:41.562Z,100.00
2023-04-08T01:51:14.800Z,95.14
2023-04-08T01:53:47.998Z,99.91
2023-04-08T01:56:23.079Z,100.00
2023-04-08T01:58:59.909Z,100.00
2023-04-08T02:01:33.867Z,96.47
2023-04-08T02:04:07.049Z,97.26
2023-04-08T02:06:40.352Z,94.22
2023-04-08T02:09:13.677Z,94.71
2023-04-08T02:11:47.253Z,93.28
2023-04-08T02:14:23.113Z,94.03
2023-04-08T02:17:00.759Z,95.38
2023-04-08T02:19:38.885Z,100.00
2023-04-08T02:22:14.242Z,98.93
2023-04-08T02:24:48.197Z,100.00
2023-04-08T02:27:21.531Z,97.15
2023-04-08T02:29:58.326Z,96.31
2023-04-08T02:32:32.168Z,92.47
2023-04-08T02:35:06.430Z,96.13
2023-04-08T02:37:39.618Z,93.42
2023-04-08T02:40:25.816Z,96.84
2023-04-08T02:42:59.323Z,92.77
2023-04-08T02:45:34.769Z,94.79
2023-04-08T02:48:08.221Z,94.19
2023-04-08T02:50:41.243Z,94.92
2023-04-08T02:53:14.105Z,92.96
2023-04-08T02:55:47.018Z,96.07
2023-04-08T02:58:20.161Z,100.00
2023-04-08T03:00:54.954Z,100.00
2023-04-08T03:03:29.990Z,100.00
2023-04-08T03:06:03.391Z,100.00
2023-04-08T03:08:36.340Z,100.00
2023-04-08T03:11:09.704Z,100.00
2023-04-08T03:13:43.764Z,100.00
2023-04-08T03:16:18.906Z,100.00
2023-04-08T03:18:52.559Z,100.00
2023-04-08T03:21:27.096Z,100.00
2023-04-08T03:24:00.900Z,100.00
2023-04-08T03:26:33.837Z,100.00
2023-04-08T03:29:08.061Z,100.00
2023-04-08T03:31:42.786Z,100.00
2023-04-08T03:34:15.920Z,100.00
2023-04-08T03:36:48.827Z,100.00
2023-04-08T03:39:21.920Z,100.00
2023-04-08T03:41:54.901Z,100.00
2023-04-08T03:44:28.205Z,100.00
2023-04-08T03:47:02.577Z,100.00
2023-04-08T03:49:35.703Z,100.00
2023-04-08T03:52:09.207Z,100.00
2023-04-08T03:54:42.133Z,100.00
2023-04-08T03:57:16.107Z,100.00
2023-04-08T03:59:49.598Z,100.00
2023-04-08T04:02:24.491Z,99.84
2023-04-08T04:04:57.652Z,97.20
2023-04-08T04:07:30.661Z,100.00
2023-04-08T04:10:03.584Z,100.00
2023-04-08T04:12:37.395Z,100.00
2023-04-08T04:15:11.593Z,100.00
2023-04-08T04:17:48.916Z,97.85
2023-04-08T04:20:22.312Z,98.29
2023-04-08T04:22:55.205Z,97.93
2023-04-08T04:25:28.476Z,96.72
2023-04-08T04:28:02.895Z,99.52
2023-04-08T04:30:37.685Z,100.00
2023-04-08T04:33:12.008Z,99.56
2023-04-08T04:35:44.994Z,100.00
2023-04-08T04:38:18.287Z,100.00
2023-04-08T04:40:51.378Z,98.48
2023-04-08T04:43:24.615Z,97.39
2023-04-08T04:45:58.002Z,97.89
2023-04-08T04:48:32.528Z,93.61
2023-04-08T04:51:07.517Z,94.03
2023-04-08T04:53:40.618Z,96.48
2023-04-08T04:56:13.643Z,95.43
2023-04-08T04:58:46.863Z,91.91
2023-04-08T05:01:19.949Z,92.36
2023-04-08T05:03:54.246Z,94.45
2023-04-08T05:06:27.642Z,97.62
2023-04-08T05:09:01.939Z,94.76
2023-04-08T05:11:35.095Z,95.51
2023-04-08T05:14:09.132Z,97.46
2023-04-08T05:16:42.860Z,95.85
2023-04-08T05:19:17.275Z,95.08
2023-04-08T05:21:50.488Z,96.38
2023-04-08T05:24:23.468Z,96.12
2023-04-08T05:26:57.905Z,95.67
2023-04-08T05:29:31.197Z,95.67
2023-04-08T05:32:04.275Z,94.53
2023-04-08T05:34:38.721Z,96.64
2023-04-08T05:37:11.815Z,97.58
2023-04-08T05:39:44.882Z,99.07
2023-04-08T05:42:18.221Z,96.54
2023-04-08T05:44:51.645Z,96.33
2023-04-08T05:47:24.684Z,98.63
2023-04-08T05:50:00.526Z,98.87
2023-04-08T05:52:33.744Z,96.50
2023-04-08T05:55:07.271Z,98.11
2023-04-08T05:57:40.404Z,99.66
2023-04-08T06:00:17.590Z,96.71
2023-04-08T06:02:51.423Z,97.45
2023-04-08T06:05:25.819Z,100.00
2023-04-08T06:07:58.716Z,99.81
2023-04-08T06:10:32.205Z,97.41
2023-04-08T06:13:06.866Z,96.39
2023-04-08T06:15:39.841Z,92.71
2023-04-08T06:18:12.788Z,97.47
2023-04-08T06:20:47.238Z,100.00
2023-04-08T06:23:20.618Z,100.00
2023-04-08T06:25:55.179Z,96.97
2023-04-08T06:28:30.826Z,91.08
2023-04-08T06:31:03.895Z,93.24
2023-04-08T06:33:37.003Z,94.40
2023-04-08T06:36:13.241Z,97.61
2023-04-08T06:38:46.524Z,97.56
2023-04-08T06:41:19.932Z,99.27
2023-04-08T06:43:52.998Z,99.60
2023-04-08T06:46:26.569Z,93.94
2023-04-08T06:48:59.833Z,93.70
2023-04-08T06:51:34.454Z,95.08
2023-04-08T06:54:10.174Z,92.50
2023-04-08T06:56:44.868Z,92.86
2023-04-08T06:59:17.760Z,92.52
2023-04-08T07:01:51.378Z,93.07
2023-04-08T07:04:24.845Z,92.36
2023-04-08T07:06:59.425Z,90.06
2023-04-08T07:09:32.996Z,93.02
2023-04-08T07:12:06.622Z,90.19
2023-04-08T07:14:39.920Z,91.85
2023-04-08T07:17:13.209Z,89.12
2023-04-08T07:19:46.572Z,91.58
2023-04-08T07:22:21.086Z,93.15
2023-04-08T07:24:54.350Z,92.67
2023-04-08T07:27:27.540Z,92.26
2023-04-08T07:30:01.348Z,87.71
2023-04-08T07:32:34.590Z,90.10
2023-04-08T07:35:08.270Z,88.33
2023-04-08T07:37:42.907Z,89.42
2023-04-08T07:40:16.261Z,89.58
2023-04-08T07:42:49.504Z,89.53
2023-04-08T07:45:22.821Z,87.18
2023-04-08T07:47:55.898Z,86.66
2023-04-08T07:50:28.895Z,88.45
2023-04-08T07:53:03.520Z,87.75
2023-04-08T07:55:36.775Z,87.15
2023-04-08T07:58:09.809Z,86.34
2023-04-08T08:00:43.017Z,86.42
2023-04-08T08:03:16.175Z,85.82
2023-04-08T08:05:49.270Z,85.58
2023-04-08T08:08:24.094Z,84.02
2023-04-08T08:10:57.529Z,83.93
2023-04-08T08:13:32.240Z,80.36
2023-04-08T08:16:09.201Z,83.37
2023-04-08T08:18:42.837Z,81.88
2023-04-08T08:21:16.081Z,80.90
2023-04-08T08:23:51.675Z,80.31
2023-04-08T08:26:24.904Z,80.40
2023-04-08T08:28:57.967Z,78.39
2023-04-08T08:31:31.429Z,77.96
2023-04-08T08:34:04.547Z,76.38
2023-04-08T08:36:37.797Z,76.19
2023-04-08T08:39:13.094Z,76.76
2023-04-08T08:41:46.403Z,77.19
2023-04-08T08:44:19.596Z,77.51
2023-04-08T08:46:53.336Z,76.29
2023-04-08T08:49:26.754Z,75.14
2023-04-08T08:52:01.644Z,75.10
2023-04-08T08:54:36.577Z,74.01
2023-04-08T08:57:17.702Z,72.83
2023-04-08T08:59:50.933Z,74.30
2023-04-08T09:02:25.597Z,75.06
2023-04-08T09:05:00.054Z,73.91
2023-04-08T09:07:36.414Z,73.51
2023-04-08T09:10:29.680Z,73.42
2023-04-08T09:13:04.408Z,73.92
2023-04-08T09:15:37.935Z,72.83
2023-04-08T09:18:22.786Z,72.80
2023-04-08T09:20:56.060Z,72.69
2023-04-08T09:23:42.610Z,71.87
2023-04-08T09:26:18.036Z,71.35
2023-04-08T09:29:11.000Z,71.51
2023-04-08T09:31:55.129Z,72.42
2023-04-08T09:34:29.626Z,71.16
2023-04-08T09:37:02.553Z,70.00
2023-04-08T09:39:35.865Z,69.65
2023-04-08T09:42:13.050Z,69.26
2023-04-08T09:44:47.606Z,69.08
2023-04-08T09:47:22.178Z,67.62
2023-04-08T09:49:56.850Z,67.35
2023-04-08T09:52:31.809Z,64.16
2023-04-08T09:55:05.560Z,62.65
2023-04-08T09:57:43.372Z,63.74
2023-04-08T10:00:17.061Z,61.71
2023-04-08T10:02:56.429Z,61.75
2023-04-08T10:05:31.141Z,62.20
2023-04-08T10:08:04.947Z,62.43
2023-04-08T10:10:40.825Z,61.57
2023-04-08T10:13:16.169Z,61.65
2023-04-08T10:15:49.848Z,61.86
2023-04-08T10:18:33.960Z,61.17
2023-04-08T10:21:27.246Z,59.45
2023-04-08T10:24:06.065Z,59.83
2023-04-08T10:26:40.693Z,59.77
2023-04-08T10:29:34.855Z,59.57
2023-04-08T10:32:10.238Z,59.01
2023-04-08T10:34:52.765Z,57.94
2023-04-08T10:37:25.823Z,57.45
2023-04-08T10:39:58.975Z,57.46
2023-04-08T10:42:32.535Z,56.33
2023-04-08T10:45:06.042Z,56.86
2023-04-08T10:47:40.684Z,56.65
2023-04-08T10:50:14.481Z,55.01
2023-04-08T10:52:48.210Z,55.31
2023-04-08T10:55:24.794Z,56.15
2023-04-08T10:58:06.590Z,56.49
2023-04-08T11:00:41.221Z,55.61
2023-04-08T11:03:15.886Z,56.13
2023-04-08T11:05:50.366Z,56.12
2023-04-08T11:08:29.129Z,55.66
2023-04-08T11:11:02.529Z,55.39
2023-04-08T11:13:37.623Z,55.18
2023-04-08T11:16:18.231Z,56.07
2023-04-08T11:18:53.367Z,56.52
2023-04-08T11:21:29.712Z,56.35
2023-04-08T11:24:02.919Z,55.47
2023-04-08T11:26:37.095Z,55.63
2023-04-08T11:29:12.848Z,53.96
2023-04-08T11:31:47.317Z,55.56
2023-04-08T11:34:25.628Z,55.09
2023-04-08T11:36:59.597Z,55.10
2023-04-08T11:39:32.834Z,54.75
2023-04-08T11:42:06.370Z,54.93
2023-04-08T11:44:39.430Z,55.61
2023-04-08T11:47:12.604Z,55.55
2023-04-08T11:49:47.680Z,55.14
2023-04-08T11:52:20.691Z,53.84
2023-04-08T11:54:56.425Z,55.40
2023-04-08T11:57:29.968Z,55.62
2023-04-08T12:00:03.430Z,55.78
2023-04-08T12:02:36.607Z,54.61
2023-04-08T12:05:11.916Z,54.81
2023-04-08T12:07:45.286Z,54.56
2023-04-08T12:10:18.639Z,53.92
2023-04-08T12:12:52.378Z,55.49
2023-04-08T12:15:25.850Z,54.46
2023-04-08T12:17:59.495Z,53.79
2023-04-08T12:20:33.913Z,54.29
2023-04-08T12:23:08.120Z,52.65
2023-04-08T12:25:41.388Z,52.67
2023-04-08T12:28:14.596Z,54.28
2023-04-08T12:30:47.766Z,52.05
2023-04-08T12:33:20.982Z,51.48
2023-04-08T12:35:55.999Z,53.08
2023-04-08T12:38:29.572Z,52.15
2023-04-08T12:41:03.529Z,51.39
2023-04-08T12:43:36.514Z,50.17
2023-04-08T12:46:09.447Z,51.08
2023-04-08T12:48:45.024Z,52.23
2023-04-08T12:51:19.508Z,51.95
2023-04-08T12:53:53.010Z,53.08
2023-04-08T12:56:26.248Z,48.91
2023-04-08T12:58:59.481Z,50.50
2023-04-08T13:01:32.717Z,48.89
2023-04-08T13:04:06.566Z,49.67
2023-04-08T13:06:41.167Z,50.06
2023-04-08T13:09:15.270Z,50.14
2023-04-08T13:11:51.516Z,47.80
2023-04-08T13:14:25.284Z,48.40
2023-04-08T13:16:58.849Z,48.80
2023-04-08T13:19:31.918Z,50.44
2023-04-08T13:22:06.555Z,49.15
2023-04-08T13:24:39.832Z,47.82
2023-04-08T13:27:12.770Z,49.23
2023-04-08T13:29:45.748Z,47.71
2023-04-08T13:32:18.976Z,51.17
2023-04-08T13:34:52.394Z,48.39
2023-04-08T13:37:27.470Z,51.32
2023-04-08T13:40:01.111Z,48.51
2023-04-08T13:42:34.514Z,51.38
2023-04-08T13:45:08.327Z,48.68
2023-04-08T13:47:41.627Z,52.55
2023-04-08T13:50:15.460Z,47.51
2023-04-08T13:52:50.609Z,47.07
2023-04-08T13:55:24.423Z,48.50
2023-04-08T13:57:57.969Z,46.74
2023-04-08T14:00:31.675Z,46.07
2023-04-08T14:03:05.561Z,49.99
2023-04-08T14:05:39.473Z,48.30
2023-04-08T14:08:14.842Z,47.40
2023-04-08T14:10:48.695Z,50.41
2023-04-08T14:13:23.284Z,47.06
2023-04-08T14:15:59.041Z,46.91
2023-04-08T14:18:32.936Z,47.10
2023-04-08T14:21:08.310Z,47.75
2023-04-08T14:23:43.458Z,48.22
2023-04-08T14:26:17.021Z,49.90
2023-04-08T14:28:50.944Z,49.89
2023-04-08T14:31:25.214Z,52.08
2023-04-08T14:33:59.578Z,52.72
2023-04-08T14:36:33.247Z,52.71
2023-04-08T14:39:08.517Z,49.35
2023-04-08T14:41:42.186Z,54.85
2023-04-08T14:44:15.652Z,49.89
2023-04-08T14:46:49.637Z,48.52
2023-04-08T14:49:24.453Z,48.75
2023-04-08T14:51:58.126Z,49.35
2023-04-08T14:54:33.147Z,51.23
2023-04-08T14:57:06.671Z,54.41
2023-04-08T14:59:40.470Z,50.98
2023-04-08T15:02:14.559Z,51.04
2023-04-08T15:04:48.408Z,51.14
2023-04-08T15:07:22.266Z,54.54
2023-04-08T15:09:57.627Z,54.08
2023-04-08T15:12:33.711Z,53.41
2023-04-08T15:15:08.673Z,52.92
2023-04-08T15:17:42.906Z,51.46
2023-04-08T15:20:18.626Z,53.29
2023-04-08T15:22:52.602Z,50.79
2023-04-08T15:25:27.225Z,51.23
2023-04-08T15:28:02.710Z,52.34
2023-04-08T15:30:36.872Z,52.92
2023-04-08T15:33:11.134Z,54.45
2023-04-08T15:35:46.535Z,53.23
2023-04-08T15:38:19.993Z,51.25
2023-04-08T15:40:55.152Z,52.54
2023-04-08T15:43:28.250Z,54.73
2023-04-08T15:46:01.499Z,51.34
2023-04-08T15:48:34.505Z,51.47
2023-04-08T15:51:08.495Z,52.50
2023-04-08T15:53:41.955Z,55.02
2023-04-08T15:56:18.229Z,53.77
2023-04-08T15:58:52.084Z,49.77
2023-04-08T16:01:25.617Z,54.34
2023-04-08T16:04:04.198Z,49.97
2023-04-08T16:06:37.630Z,51.02
2023-04-08T16:09:11.336Z,51.07
2023-04-08T16:11:46.768Z,51.03
2023-04-08T16:14:20.920Z,50.05
2023-04-08T16:16:54.583Z,51.22
2023-04-08T16:19:28.596Z,53.40
2023-04-08T16:22:04.397Z,56.35
2023-04-08T16:24:37.960Z,53.38
2023-04-08T16:27:12.784Z,53.96
2023-04-08T16:29:46.957Z,52.34
2023-04-08T16:32:21.222Z,54.55
2023-04-08T16:34:55.493Z,52.12
2023-04-08T16:37:29.446Z,51.60
2023-04-08T16:40:03.623Z,54.49
2023-04-08T16:42:39.704Z,52.44
2023-04-08T16:45:13.800Z,52.14
2023-04-08T16:47:48.099Z,54.27
2023-04-08T16:50:22.429Z,53.26
2023-04-08T16:52:56.509Z,53.68
2023-04-08T16:55:33.894Z,54.24
2023-04-08T16:58:10.574Z,53.26
2023-04-08T17:00:44.937Z,53.16
2023-04-08T17:03:19.393Z,55.01
2023-04-08T17:05:52.690Z,54.85
2023-04-08T17:08:27.214Z,56.91
2023-04-08T17:11:11.085Z,59.15
2023-04-08T17:13:47.696Z,58.77
2023-04-08T17:16:22.140Z,60.54
2023-04-08T17:18:56.409Z,62.49
2023-04-08T17:21:30.641Z,62.12
2023-04-08T17:24:04.813Z,63.63
2023-04-08T17:26:38.991Z,63.72
2023-04-08T17:29:14.437Z,64.97
2023-04-08T17:31:51.155Z,64.69
2023-04-08T17:34:27.226Z,66.26
2023-04-08T17:37:02.962Z,66.01
2023-04-08T17:39:41.334Z,66.89
2023-04-08T17:42:15.601Z,67.79
2023-04-08T17:44:51.749Z,67.34
2023-04-08T17:47:25.638Z,67.29
2023-04-08T17:49:59.856Z,68.03
2023-04-08T17:52:33.714Z,67.52
2023-04-08T17:55:08.795Z,67.70
2023-04-08T17:57:43.400Z,67.99
2023-04-08T18:00:19.240Z,66.58
2023-04-08T18:02:56.316Z,69.12
2023-04-08T18:05:32.456Z,68.34
2023-04-08T18:08:07.029Z,67.74
2023-04-08T18:10:44.018Z,69.55
2023-04-08T18:13:23.816Z,70.16
2023-04-08T18:15:59.389Z,70.77
2023-04-08T18:18:34.909Z,71.37
2023-04-08T18:21:09.579Z,71.45
2023-04-08T18:23:43.910Z,72.69
2023-04-08T18:26:18.181Z,71.70
2023-04-08T18:28:52.226Z,76.89
2023-04-08T18:31:28.144Z,71.48
2023-04-08T18:34:02.984Z,72.41
2023-04-08T18:36:37.313Z,73.29
2023-04-08T18:39:12.667Z,72.25
2023-04-08T18:41:46.840Z,73.21
2023-04-08T18:44:21.284Z,73.66
2023-04-08T18:46:57.250Z,75.51
2023-04-08T18:49:33.793Z,75.61
2023-04-08T18:52:09.198Z,77.85
2023-04-08T18:54:44.494Z,79.46
2023-04-08T18:57:18.714Z,73.75
2023-04-08T18:59:52.785Z,75.70
2023-04-08T19:02:28.674Z,75.50
2023-04-08T19:05:03.188Z,76.16
2023-04-08T19:07:37.492Z,76.83
2023-04-08T19:10:14.207Z,75.57
2023-04-08T19:12:49.450Z,74.89
2023-04-08T19:15:23.631Z,71.62
2023-04-08T19:18:04.014Z,79.80
2023-04-08T19:20:42.664Z,80.22
2023-04-08T19:23:17.273Z,73.34
2023-04-08T19:25:51.260Z,78.51
2023-04-08T19:28:27.722Z,76.93
2023-04-08T19:31:05.393Z,74.86
2023-04-08T19:33:41.326Z,71.35
2023-04-08T19:36:15.269Z,71.99
2023-04-08T19:38:49.382Z,76.29
2023-04-08T19:41:24.020Z,77.31
2023-04-08T19:43:57.912Z,71.01
2023-04-08T19:46:32.310Z,79.55
2023-04-08T19:49:08.436Z,72.51
2023-04-08T19:51:42.592Z,70.43
2023-04-08T19:54:16.838Z,80.43
2023-04-08T19:56:51.097Z,71.00
2023-04-08T19:59:29.186Z,83.43
2023-04-08T20:02:04.765Z,69.53
2023-04-08T20:04:40.147Z,75.96
2023-04-08T20:07:14.842Z,75.50
2023-04-08T20:09:49.040Z,72.04
2023-04-08T20:12:24.710Z,68.02
2023-04-08T20:14:59.175Z,84.89
2023-04-08T20:17:33.508Z,82.98
2023-04-08T20:20:12.111Z,79.59
2023-04-08T20:22:47.257Z,76.04
2023-04-08T20:25:21.320Z,73.79
2023-04-08T20:27:55.347Z,75.71
2023-04-08T20:30:29.449Z,70.33
2023-04-08T20:33:03.722Z,77.33
2023-04-08T20:35:39.466Z,73.80
2023-04-08T20:38:14.029Z,80.80
2023-04-08T20:40:47.945Z,80.45
2023-04-08T20:43:22.105Z,75.47
2023-04-08T20:45:56.538Z,71.24
2023-04-08T20:48:31.265Z,70.91
2023-04-08T20:51:09.378Z,78.61
2023-04-08T20:53:44.561Z,71.76
2023-04-08T20:56:19.425Z,80.37
2023-04-08T20:58:53.778Z,77.36
2023-04-08T21:01:29.262Z,76.74
2023-04-08T21:04:11.111Z,77.04
2023-04-08T21:06:55.001Z,70.92
2023-04-08T21:09:35.514Z,72.79
2023-04-08T21:12:18.913Z,71.22
2023-04-08T21:15:09.851Z,72.72
2023-04-08T21:17:48.582Z,70.46
2023-04-08T21:20:27.030Z,79.51
2023-04-08T21:23:11.274Z,72.40
2023-04-08T21:25:56.365Z,75.15
2023-04-08T21:28:41.482Z,71.58
2023-04-08T21:31:20.525Z,73.14
2023-04-08T21:34:01.783Z,75.35
2023-04-08T21:36:41.757Z,74.06
2023-04-08T21:39:23.411Z,72.97
2023-04-08T21:42:09.183Z,75.25
2023-04-08T21:44:55.408Z,73.07
2023-04-08T21:47:34.860Z,74.43
2023-04-08T21:50:17.150Z,76.29
2023-04-08T21:53:06.919Z,76.64
2023-04-08T21:55:45.134Z,76.13
2023-04-08T21:58:18.366Z,77.44
2023-04-08T22:00:51.709Z,76.23
2023-04-08T22:03:24.789Z,78.90
2023-04-08T22:05:57.661Z,81.77
2023-04-08T22:08:32.558Z,79.30
2023-04-08T22:11:08.931Z,81.22
2023-04-08T22:13:42.481Z,81.04
2023-04-08T22:16:15.983Z,83.42
2023-04-08T22:18:49.109Z,81.95
2023-04-08T22:21:22.835Z,81.33
2023-04-08T22:23:55.830Z,84.99
2023-04-08T22:26:30.187Z,83.98
2023-04-08T22:29:03.595Z,85.92
2023-04-08T22:31:37.083Z,86.02
2023-04-08T22:34:10.072Z,85.14
2023-04-08T22:36:43.246Z,84.45
2023-04-08T22:39:16.436Z,84.28
2023-04-08T22:41:51.113Z,86.78
2023-04-08T22:44:24.277Z,87.52
2023-04-08T22:46:57.419Z,84.73
2023-04-08T22:49:30.477Z,87.76
2023-04-08T22:52:03.521Z,88.43
2023-04-08T22:54:36.879Z,86.91
2023-04-08T22:57:11.247Z,85.47
2023-04-08T22:59:44.707Z,86.89
2023-04-08T23:02:18.104Z,86.91
2023-04-08T23:04:54.260Z,83.17
2023-04-08T23:07:27.214Z,85.05
2023-04-08T23:10:00.475Z,88.30
2023-04-08T23:12:36.104Z,89.65
2023-04-08T23:15:10.306Z,92.97
2023-04-08T23:17:43.273Z,93.32
2023-04-08T23:20:16.382Z,92.43
2023-04-08T23:22:49.717Z,88.74
2023-04-08T23:25:23.336Z,90.20
2023-04-08T23:27:57.858Z,89.86
2023-04-08T23:30:31.157Z,90.71
2023-04-08T23:33:04.478Z,87.03
2023-04-08T23:35:37.468Z,88.90
2023-04-08T23:38:10.737Z,88.40
2023-04-08T23:40:44.001Z,90.52
2023-04-08T23:43:18.348Z,89.33
2023-04-08T23:45:51.734Z,88.39
2023-04-08T23:48:24.730Z,90.02
2023-04-08T23:50:57.935Z,91.76
2023-04-08T23:53:31.101Z,91.24
2023-04-08T23:56:07.590Z,91.91
2023-04-08T23:58:42.078Z,90.84
